Terminal Aerodrome Forecast
Issued by NWS

Home | Current Version | Previous Version | Text Only | Print | Product List | Glossary On
Versions: 1 2 3 4 5 6 7 8 9 10 11 12 13 14
000
FTUS43 KOAX 012300
TAFSNY
TAF
KSNY 012339Z 0200/0224 34018G28KT 6SM -RA VCTS BKN050 OVC080CB
      TEMPO 0201/0203 4SM RA BR OVC050
     FM020300 34015KT P6SM VCSH BKN080
     FM020700 31008KT P6SM SCT120
     FM021800 32014G21KT P6SM FEW200=

USA.gov is the U.S. government's official web portal to all federal, state and local government web resources and services.